Time;durP1;ratioP1;P1;durP2;ratioP2;P2;SDS_P1;SDS_P2;PMS_P1;PMS_P2;Temp;Humidity;BMP_temperature;BMP_pressure;BME280_temperature;BME280_humidity;BME280_pressure;Samples;Min_cycle;Max_cycle;Signal;HPM_P1;HPM_P2
2023/07/21 00:01:53;;;;;;;5.30;3.97;;;15.40;99.90;;;;;;4998088;28;20117;-65
2023/07/21 00:04:23;;;;;;;6.68;4.18;;;15.40;99.90;;;;;;5004289;28;20025;-65
2023/07/21 00:06:49;;;;;;;7.10;4.40;;;15.40;99.90;;;;;;5004751;28;20022;-65
2023/07/21 00:09:15;;;;;;;6.43;4.50;;;15.40;99.90;;;;;;5007357;28;20573;-65
2023/07/21 00:11:40;;;;;;;7.47;4.60;;;15.30;99.90;;;;;;5005925;28;20025;-65
2023/07/21 00:14:06;;;;;;;6.75;4.65;;;15.30;99.90;;;;;;5005785;28;20244;-65
2023/07/21 00:16:33;;;;;;;6.80;3.90;;;15.30;99.90;;;;;;5000147;28;20133;-65
2023/07/21 00:19:00;;;;;;;7.03;4.38;;;15.20;99.90;;;;;;5003309;28;20029;-64
2023/07/21 00:21:26;;;;;;;5.78;4.05;;;15.20;99.90;;;;;;5005278;28;20029;-64
2023/07/21 00:23:52;;;;;;;7.65;4.80;;;15.20;99.90;;;;;;5002815;28;20030;-65
2023/07/21 00:26:17;;;;;;;7.40;4.38;;;15.10;99.90;;;;;;5007264;28;20037;-66
2023/07/21 00:28:44;;;;;;;8.00;4.00;;;15.10;99.90;;;;;;4999981;28;20033;-66
2023/07/21 00:31:10;;;;;;;6.82;4.75;;;15.00;99.90;;;;;;5002871;28;20026;-66
2023/07/21 00:33:36;;;;;;;8.88;5.05;;;14.90;99.90;;;;;;5006441;28;20037;-65
2023/07/21 00:36:04;;;;;;;6.65;4.55;;;14.90;99.90;;;;;;5005619;28;20025;-65
2023/07/21 00:38:30;;;;;;;7.80;4.45;;;14.90;99.90;;;;;;5003758;28;20117;-65
2023/07/21 00:40:55;;;;;;;5.40;4.07;;;14.90;99.90;;;;;;5004136;28;20033;-65
2023/07/21 00:43:21;;;;;;;7.75;4.57;;;14.80;99.90;;;;;;5006837;28;20026;-67
2023/07/21 00:45:48;;;;;;;8.48;5.53;;;14.80;99.90;;;;;;5004287;28;20041;-65
2023/07/21 00:48:18;;;;;;;5.85;5.03;;;14.80;99.90;;;;;;5004917;28;20045;-66
2023/07/21 00:50:46;;;;;;;8.52;5.25;;;14.80;99.90;;;;;;5007845;28;20093;-66
2023/07/21 00:53:12;;;;;;;6.15;4.38;;;14.90;99.90;;;;;;4990253;28;20121;-66
2023/07/21 00:55:38;;;;;;;7.65;5.35;;;14.80;99.90;;;;;;5006483;28;20048;-66
2023/07/21 00:58:07;;;;;;;8.73;5.40;;;14.80;99.90;;;;;;4988244;28;20038;-66
2023/07/21 01:00:33;;;;;;;6.55;4.88;;;14.80;99.90;;;;;;5000155;28;20026;-66
2023/07/21 01:03:01;;;;;;;9.18;5.05;;;14.80;99.90;;;;;;5003902;28;20045;-65
2023/07/21 01:05:29;;;;;;;5.45;4.32;;;14.80;99.90;;;;;;5004254;28;20030;-65
2023/07/21 01:07:56;;;;;;;6.45;4.47;;;14.80;99.90;;;;;;5005193;28;20049;-65
2023/07/21 01:10:22;;;;;;;8.48;4.78;;;14.80;99.90;;;;;;5007955;28;20578;-65
2023/07/21 01:12:48;;;;;;;5.63;3.58;;;14.80;99.90;;;;;;4992057;28;20033;-64
2023/07/21 01:15:14;;;;;;;7.78;3.70;;;14.70;99.90;;;;;;5010449;28;20033;-65
2023/07/21 01:17:40;;;;;;;5.22;3.50;;;14.70;99.90;;;;;;5005788;28;20033;-66
2023/07/21 01:20:09;;;;;;;5.43;2.88;;;14.70;99.90;;;;;;5009631;28;20065;-65
2023/07/21 01:22:42;;;;;;;4.75;3.60;;;14.70;99.90;;;;;;5008832;28;20029;-65
2023/07/21 01:25:13;;;;;;;3.33;2.90;;;14.80;99.90;;;;;;5012313;28;20046;-65
2023/07/21 01:27:43;;;;;;;6.20;4.20;;;14.80;99.90;;;;;;5008134;28;20053;-66
2023/07/21 01:30:14;;;;;;;5.38;3.33;;;14.80;99.90;;;;;;5011783;28;20384;-66
2023/07/21 01:32:41;;;;;;;4.75;3.55;;;14.70;99.90;;;;;;5012344;28;20132;-65
2023/07/21 01:35:09;;;;;;;7.38;3.53;;;14.80;99.90;;;;;;5011710;28;20022;-66
2023/07/21 01:37:40;;;;;;;4.50;3.10;;;14.80;99.90;;;;;;5005724;28;20021;-65
2023/07/21 01:40:07;;;;;;;4.68;4.05;;;14.80;99.90;;;;;;5007542;28;20032;-65
2023/07/21 01:42:34;;;;;;;6.20;3.20;;;14.80;99.90;;;;;;5010831;28;20045;-67
2023/07/21 01:45:03;;;;;;;6.72;3.85;;;14.80;99.90;;;;;;5010761;28;20034;-66
2023/07/21 01:47:37;;;;;;;3.75;3.08;;;14.80;99.90;;;;;;5012437;28;20487;-65
2023/07/21 01:50:08;;;;;;;10.07;3.25;;;14.80;99.90;;;;;;5011693;28;20628;-66
2023/07/21 01:52:36;;;;;;;5.95;3.10;;;14.80;99.90;;;;;;5011813;28;20026;-65
2023/07/21 01:55:09;;;;;;;5.20;3.47;;;14.80;99.90;;;;;;5010827;28;20475;-65
2023/07/21 01:57:38;;;;;;;4.70;3.28;;;14.80;99.90;;;;;;5011030;28;20442;-65
2023/07/21 02:00:10;;;;;;;5.65;3.10;;;14.80;99.90;;;;;;5010180;28;20037;-66
2023/07/21 02:02:38;;;;;;;8.35;3.47;;;14.80;99.90;;;;;;4991325;28;20426;-66
2023/07/21 02:05:05;;;;;;;7.88;3.30;;;14.90;99.90;;;;;;4990289;28;20754;-65
2023/07/21 02:07:32;;;;;;;6.10;3.33;;;14.90;99.90;;;;;;5011432;28;20033;-66
2023/07/21 02:09:58;;;;;;;5.40;3.05;;;14.90;99.90;;;;;;4994049;28;20116;-64
2023/07/21 02:12:23;;;;;;;4.35;3.67;;;14.90;99.90;;;;;;5011100;28;20040;-66
2023/07/21 02:14:49;;;;;;;4.10;3.42;;;14.90;99.90;;;;;;5009634;28;20026;-65
2023/07/21 02:17:14;;;;;;;5.47;3.55;;;14.90;99.90;;;;;;5007463;28;20038;-66
2023/07/21 02:19:40;;;;;;;6.13;2.70;;;14.90;99.90;;;;;;4993527;28;20030;-66
2023/07/21 02:22:06;;;;;;;4.45;2.67;;;14.80;99.90;;;;;;5009695;28;20069;-66
2023/07/21 02:24:32;;;;;;;4.50;2.67;;;14.80;99.90;;;;;;5009902;28;20504;-65
2023/07/21 02:26:59;;;;;;;3.85;2.72;;;14.80;99.90;;;;;;5007488;28;20165;-66
2023/07/21 02:29:24;;;;;;;7.65;3.30;;;14.80;99.90;;;;;;4991634;28;20027;-66
2023/07/21 02:31:50;;;;;;;3.97;2.50;;;14.80;99.90;;;;;;4988235;28;20035;-65
2023/07/21 02:34:16;;;;;;;4.53;2.97;;;14.80;99.90;;;;;;4985937;28;20029;-66
2023/07/21 02:36:41;;;;;;;3.92;2.92;;;14.80;99.90;;;;;;5006910;28;20034;-65
2023/07/21 02:39:07;;;;;;;4.15;2.75;;;14.80;99.90;;;;;;5011509;28;20091;-64
2023/07/21 02:41:33;;;;;;;4.75;2.55;;;14.80;99.90;;;;;;5008720;28;20108;-65
2023/07/21 02:43:59;;;;;;;5.88;2.70;;;14.70;99.90;;;;;;5010921;28;20014;-66
2023/07/21 02:46:25;;;;;;;4.50;2.40;;;14.70;99.90;;;;;;5011086;28;20407;-65
2023/07/21 02:48:50;;;;;;;4.97;2.80;;;14.70;99.90;;;;;;5011616;28;20093;-64
2023/07/21 02:51:16;;;;;;;6.15;2.88;;;14.70;99.90;;;;;;5010318;28;20104;-66
2023/07/21 02:53:42;;;;;;;5.10;2.90;;;14.70;99.90;;;;;;5003701;28;20503;-65
2023/07/21 02:56:08;;;;;;;4.30;2.88;;;14.70;99.90;;;;;;5010734;28;20034;-66
2023/07/21 02:58:33;;;;;;;4.53;3.17;;;14.70;99.90;;;;;;5011074;28;20053;-65
2023/07/21 03:01:02;;;;;;;3.47;2.95;;;14.60;99.90;;;;;;5008657;28;20036;-65
2023/07/21 03:03:28;;;;;;;4.15;3.30;;;14.60;99.90;;;;;;5010162;28;20060;-65
2023/07/21 03:05:54;;;;;;;5.13;3.47;;;14.50;99.90;;;;;;5010149;28;20076;-65
2023/07/21 03:08:26;;;;;;;6.38;3.60;;;14.50;99.90;;;;;;5008600;28;20458;-66
2023/07/21 03:10:56;;;;;;;8.25;3.83;;;14.50;99.90;;;;;;4985329;28;20452;-66
2023/07/21 03:13:22;;;;;;;4.32;3.42;;;14.50;99.90;;;;;;4991990;28;20098;-66
2023/07/21 03:15:48;;;;;;;6.30;3.15;;;14.50;99.90;;;;;;5005356;28;20028;-66
2023/07/21 03:18:13;;;;;;;4.32;3.05;;;14.50;99.90;;;;;;5008864;28;20034;-66
2023/07/21 03:20:39;;;;;;;4.80;3.05;;;14.50;99.90;;;;;;4991048;28;20418;-66
2023/07/21 03:23:07;;;;;;;5.10;3.35;;;14.50;99.90;;;;;;5007733;28;20069;-65
2023/07/21 03:25:37;;;;;;;4.45;3.30;;;14.50;99.90;;;;;;5030150;22;20537;-65
2023/07/21 03:28:03;;;;;;;6.75;4.07;;;14.60;99.90;;;;;;4988228;28;20069;-64
2023/07/21 03:30:29;;;;;;;10.27;4.75;;;14.60;99.90;;;;;;4989760;28;20056;-67
2023/07/21 03:32:54;;;;;;;10.55;4.82;;;14.60;99.90;;;;;;4991313;28;20023;-64
2023/07/21 03:35:20;;;;;;;8.05;5.25;;;14.70;99.90;;;;;;4967647;28;20105;-67
2023/07/21 03:37:46;;;;;;;9.13;5.25;;;14.70;99.90;;;;;;4987534;28;20034;-64
2023/07/21 03:40:12;;;;;;;7.85;5.40;;;14.70;99.90;;;;;;4975014;28;20066;-63
2023/07/21 03:42:37;;;;;;;9.10;5.82;;;14.70;99.90;;;;;;4990219;28;20045;-65
2023/07/21 03:45:06;;;;;;;7.60;4.65;;;14.70;99.90;;;;;;4990789;28;20023;-65
2023/07/21 03:47:33;;;;;;;8.02;4.93;;;14.70;99.90;;;;;;4990124;28;20065;-65
2023/07/21 03:49:59;;;;;;;7.22;5.28;;;14.70;99.90;;;;;;4972784;28;20018;-65
2023/07/21 03:52:25;;;;;;;4.95;4.38;;;14.60;99.90;;;;;;4988029;28;20115;-64
2023/07/21 03:54:50;;;;;;;7.47;5.55;;;14.70;99.90;;;;;;4973373;28;20029;-62
2023/07/21 03:57:16;;;;;;;8.65;5.97;;;14.60;99.90;;;;;;4988291;28;20042;-66
2023/07/21 03:59:42;;;;;;;9.13;5.95;;;14.70;99.90;;;;;;4988087;28;20065;-66
2023/07/21 04:02:08;;;;;;;7.53;5.93;;;14.70;99.90;;;;;;4989263;28;20049;-62
2023/07/21 04:04:34;;;;;;;9.95;6.53;;;14.60;99.90;;;;;;4990607;28;20041;-65
2023/07/21 04:07:01;;;;;;;8.52;6.25;;;14.60;99.90;;;;;;4987711;28;20026;-66
2023/07/21 04:09:28;;;;;;;10.15;7.00;;;14.60;99.90;;;;;;4987305;28;20106;-65
2023/07/21 04:11:53;;;;;;;9.93;6.50;;;14.60;99.90;;;;;;4989985;28;20037;-64
2023/07/21 04:14:19;;;;;;;10.85;7.72;;;14.60;99.90;;;;;;4988063;28;20031;-65
2023/07/21 04:16:45;;;;;;;12.32;7.50;;;14.60;99.90;;;;;;4990156;28;20376;-63
2023/07/21 04:19:11;;;;;;;9.48;6.53;;;14.70;99.90;;;;;;4990964;28;20127;-66
2023/07/21 04:21:37;;;;;;;8.23;6.40;;;14.70;99.90;;;;;;4989826;28;20053;-65
2023/07/21 04:24:03;;;;;;;12.52;7.63;;;14.70;99.90;;;;;;4988189;28;20029;-65
2023/07/21 04:26:28;;;;;;;11.05;6.95;;;14.70;99.90;;;;;;4984950;28;20034;-65
2023/07/21 04:28:54;;;;;;;9.85;6.80;;;14.70;99.90;;;;;;4988830;28;20035;-64
2023/07/21 04:31:21;;;;;;;10.88;7.13;;;14.70;99.90;;;;;;4981815;28;20030;-66
2023/07/21 04:33:48;;;;;;;9.55;7.53;;;14.70;99.90;;;;;;4989527;28;20018;-64
2023/07/21 04:36:15;;;;;;;10.85;7.75;;;14.70;99.90;;;;;;4988083;28;20022;-64
2023/07/21 04:38:40;;;;;;;9.88;7.97;;;14.70;99.90;;;;;;4987831;28;20035;-64
2023/07/21 04:41:06;;;;;;;12.10;8.77;;;14.60;99.90;;;;;;4987049;28;20088;-64
2023/07/21 04:43:31;;;;;;;15.60;8.95;;;14.60;99.90;;;;;;4987570;28;20030;-65
2023/07/21 04:45:57;;;;;;;12.32;9.35;;;14.70;99.90;;;;;;4989315;28;20035;-63
2023/07/21 04:48:23;;;;;;;15.75;10.32;;;14.70;99.90;;;;;;4991620;28;20052;-64
2023/07/21 04:50:52;;;;;;;13.05;9.70;;;14.70;99.90;;;;;;4992950;28;20024;-62
2023/07/21 04:53:18;;;;;;;14.25;9.63;;;14.70;99.90;;;;;;4989918;28;20104;-66
2023/07/21 04:55:43;;;;;;;17.67;11.45;;;14.70;99.90;;;;;;4990932;28;20040;-65
2023/07/21 04:58:09;;;;;;;15.40;9.55;;;14.80;99.90;;;;;;4989207;28;20034;-64
2023/07/21 05:00:35;;;;;;;12.15;9.70;;;14.80;99.90;;;;;;4990552;28;20051;-65
2023/07/21 05:03:00;;;;;;;17.00;11.02;;;14.90;99.90;;;;;;4992566;28;20027;-65
2023/07/21 05:05:30;;;;;;;16.20;11.60;;;14.90;99.90;;;;;;4994141;28;20112;-67
2023/07/21 05:07:56;;;;;;;13.48;9.75;;;15.00;99.90;;;;;;4967947;28;20105;-65
2023/07/21 05:10:21;;;;;;;13.77;9.82;;;15.10;99.90;;;;;;4992632;28;20132;-64
2023/07/21 05:12:47;;;;;;;13.95;10.15;;;15.10;99.90;;;;;;4991792;28;20034;-66
2023/07/21 05:15:13;;;;;;;14.15;10.07;;;15.20;99.90;;;;;;4992908;28;20030;-66
2023/07/21 05:17:40;;;;;;;14.68;10.48;;;15.30;99.90;;;;;;4981352;28;20022;-65
2023/07/21 05:20:07;;;;;;;17.23;9.43;;;15.40;99.90;;;;;;4995093;28;20031;-65
2023/07/21 05:22:33;;;;;;;13.55;9.57;;;15.60;99.90;;;;;;4976850;28;20508;-64
2023/07/21 05:24:59;;;;;;;13.18;8.63;;;15.80;99.90;;;;;;4982240;28;20027;-65
2023/07/21 05:27:24;;;;;;;11.60;8.68;;;16.10;99.90;;;;;;4988207;28;20030;-64
2023/07/21 05:29:50;;;;;;;10.50;7.90;;;16.40;99.90;;;;;;4989638;28;20546;-66
2023/07/21 05:32:15;;;;;;;9.02;7.13;;;16.70;99.90;;;;;;4991082;28;20101;-65
2023/07/21 05:34:42;;;;;;;8.77;7.47;;;17.00;99.90;;;;;;4991885;28;20037;-64
2023/07/21 05:37:08;;;;;;;9.95;7.45;;;17.00;99.90;;;;;;4974740;28;20034;-65
2023/07/21 05:39:35;;;;;;;9.15;7.05;;;17.10;99.90;;;;;;4992391;28;20058;-62
2023/07/21 05:42:01;;;;;;;11.18;7.90;;;17.00;99.90;;;;;;4992778;28;20027;-64
2023/07/21 05:44:27;;;;;;;10.07;8.32;;;17.20;99.90;;;;;;4993141;28;20040;-63
2023/07/21 05:46:53;;;;;;;9.63;7.72;;;17.10;99.90;;;;;;4992699;28;20037;-61
2023/07/21 05:49:19;;;;;;;10.40;7.72;;;17.30;99.90;;;;;;4974635;28;20734;-62
2023/07/21 05:51:44;;;;;;;12.13;8.10;;;17.50;99.90;;;;;;4999706;28;20077;-63
2023/07/21 05:54:10;;;;;;;9.85;7.25;;;17.60;99.90;;;;;;4993115;28;20507;-65
2023/07/21 05:56:38;;;;;;;11.43;8.88;;;17.70;99.90;;;;;;4992150;28;20026;-64
2023/07/21 05:59:03;;;;;;;9.80;7.45;;;17.70;99.90;;;;;;4989366;28;20105;-67
2023/07/21 06:01:29;;;;;;;9.23;7.38;;;17.50;99.90;;;;;;4965676;28;20117;-66
2023/07/21 06:03:55;;;;;;;10.68;7.30;;;17.50;99.90;;;;;;4984683;28;20038;-66
2023/07/21 06:06:20;;;;;;;8.45;6.50;;;17.40;99.90;;;;;;4987437;28;20030;-66
2023/07/21 06:08:46;;;;;;;10.65;7.32;;;17.60;99.90;;;;;;4980969;28;20026;-64
2023/07/21 06:11:11;;;;;;;13.38;7.72;;;17.50;99.90;;;;;;4982918;28;20027;-60
2023/07/21 06:13:37;;;;;;;11.68;7.85;;;17.50;99.90;;;;;;4982519;28;20150;-66
2023/07/21 06:16:03;;;;;;;9.25;7.07;;;17.50;99.90;;;;;;4981083;28;20027;-65
2023/07/21 06:18:28;;;;;;;8.63;6.85;;;17.60;99.90;;;;;;4985762;28;20030;-66
2023/07/21 06:20:54;;;;;;;11.13;7.75;;;17.70;99.90;;;;;;4982780;28;20403;-62
2023/07/21 06:23:20;;;;;;;9.45;6.80;;;17.90;99.90;;;;;;4984946;28;20035;-66
2023/07/21 06:25:45;;;;;;;9.95;7.85;;;18.20;99.90;;;;;;4979456;28;20041;-64
2023/07/21 06:28:14;;;;;;;7.50;6.57;;;18.40;99.90;;;;;;4986625;28;20026;-65
2023/07/21 06:30:40;;;;;;;9.80;7.35;;;18.50;99.90;;;;;;4987747;28;20038;-59
2023/07/21 06:33:06;;;;;;;12.32;8.40;;;18.60;99.90;;;;;;4990856;28;20026;-62
2023/07/21 06:35:33;;;;;;;10.10;7.57;;;18.40;99.90;;;;;;4982680;28;20107;-63
2023/07/21 06:37:59;;;;;;;8.73;6.63;;;18.40;99.90;;;;;;4984789;28;21529;-62
2023/07/21 06:40:25;;;;;;;8.70;6.90;;;18.70;99.90;;;;;;4966172;28;20043;-62
2023/07/21 06:42:51;;;;;;;9.25;7.53;;;18.90;99.90;;;;;;4980684;28;20030;-58
2023/07/21 06:45:16;;;;;;;11.93;7.50;;;18.80;99.90;;;;;;4982453;28;20042;-64
2023/07/21 06:47:42;;;;;;;8.88;6.07;;;19.00;99.90;;;;;;4982627;28;20027;-64
2023/07/21 06:50:08;;;;;;;9.18;6.40;;;19.30;99.90;;;;;;4983005;28;20026;-63
2023/07/21 06:52:34;;;;;;;7.78;6.97;;;19.50;99.90;;;;;;4975696;28;20105;-62
2023/07/21 06:55:00;;;;;;;9.88;7.10;;;19.70;99.90;;;;;;4980055;28;20105;-62
2023/07/21 06:57:26;;;;;;;7.03;6.07;;;19.90;99.90;;;;;;4977254;28;20256;-63
2023/07/21 06:59:52;;;;;;;7.53;5.53;;;20.60;99.90;;;;;;4982947;28;20077;-64
2023/07/21 07:02:18;;;;;;;6.32;5.45;;;21.70;99.90;;;;;;4974544;28;20051;-64
2023/07/21 07:04:44;;;;;;;7.10;5.50;;;22.30;99.90;;;;;;4971593;28;20026;-66
2023/07/21 07:07:09;;;;;;;6.35;5.38;;;22.30;99.90;;;;;;4978628;28;20026;-64
2023/07/21 07:09:35;;;;;;;7.40;6.30;;;22.00;99.90;;;;;;4992175;28;20045;-62
2023/07/21 07:12:01;;;;;;;8.20;5.10;;;21.50;99.90;;;;;;4974881;28;20471;-63
2023/07/21 07:14:27;;;;;;;7.97;6.20;;;21.50;99.90;;;;;;4989891;28;20026;-62
2023/07/21 07:16:53;;;;;;;10.25;6.07;;;21.10;99.90;;;;;;4975044;28;20030;-60
2023/07/21 07:19:19;;;;;;;9.30;6.90;;;20.70;99.90;;;;;;4985507;28;20156;-62
2023/07/21 07:21:45;;;;;;;10.75;6.93;;;20.60;99.90;;;;;;4989458;28;20037;-62
2023/07/21 07:24:10;;;;;;;8.73;7.20;;;20.50;99.90;;;;;;4996290;28;20022;-65
2023/07/21 07:26:36;;;;;;;10.15;6.53;;;20.50;99.90;;;;;;4996559;28;20400;-63
2023/07/21 07:29:05;;;;;;;9.07;6.15;;;20.40;99.90;;;;;;4990606;28;20037;-63
2023/07/21 07:31:31;;;;;;;10.48;7.10;;;20.40;99.90;;;;;;4988922;28;20049;-68
2023/07/21 07:33:57;;;;;;;8.80;7.13;;;20.40;99.90;;;;;;4989522;28;20042;-61
2023/07/21 07:36:22;;;;;;;10.98;6.70;;;20.60;99.90;;;;;;4991387;28;20100;-63
2023/07/21 07:38:48;;;;;;;8.27;7.25;;;20.60;99.90;;;;;;4989738;28;20031;-62
2023/07/21 07:41:13;;;;;;;12.50;8.73;;;20.10;99.90;;;;;;4990698;28;20027;-63
2023/07/21 07:43:39;;;;;;;9.90;7.88;;;20.00;99.90;;;;;;4988864;28;20027;-64
2023/07/21 07:46:07;;;;;;;11.27;9.23;;;19.90;99.90;;;;;;4987896;28;20073;-64
2023/07/21 07:48:36;;;;;;;12.23;9.68;;;19.70;99.90;;;;;;4988872;28;20022;-62
2023/07/21 07:51:06;;;;;;;11.70;8.63;;;19.50;99.90;;;;;;4978562;28;20784;-64
2023/07/21 07:53:32;;;;;;;11.80;9.60;;;19.80;99.90;;;;;;4954964;28;20050;-64
2023/07/21 07:55:58;;;;;;;11.27;8.95;;;20.10;99.90;;;;;;4990936;28;20026;-63
2023/07/21 07:58:24;;;;;;;12.43;9.77;;;20.20;99.90;;;;;;4990503;28;20037;-62
2023/07/21 08:00:55;;;;;;;14.18;10.13;;;20.20;99.90;;;;;;4970410;28;20066;-64
2023/07/21 08:03:21;;;;;;;15.23;10.63;;;20.30;99.90;;;;;;4986636;28;20525;-64
2023/07/21 08:05:48;;;;;;;14.93;11.48;;;20.70;99.90;;;;;;4985363;28;20112;-63
2023/07/21 08:08:14;;;;;;;15.20;12.02;;;21.30;99.90;;;;;;4991051;28;20019;-63
2023/07/21 08:10:41;;;;;;;13.23;9.52;;;21.70;99.90;;;;;;4972448;28;20077;-64
2023/07/21 08:13:07;;;;;;;13.80;9.70;;;22.30;99.90;;;;;;4994092;28;20042;-63
2023/07/21 08:15:33;;;;;;;14.73;11.48;;;22.10;99.90;;;;;;4987543;28;20030;-65
2023/07/21 08:17:59;;;;;;;13.48;11.30;;;22.00;99.90;;;;;;4969716;28;20408;-64
2023/07/21 08:20:25;;;;;;;12.68;10.32;;;21.80;99.90;;;;;;4987412;28;20553;-63
2023/07/21 08:22:51;;;;;;;13.63;10.13;;;21.80;99.90;;;;;;4968319;28;20045;-61
2023/07/21 08:25:18;;;;;;;16.73;10.95;;;22.00;99.90;;;;;;4968476;28;20503;-63
2023/07/21 08:27:44;;;;;;;13.45;10.90;;;22.00;99.90;;;;;;4976384;28;20513;-63
2023/07/21 08:30:10;;;;;;;17.20;11.43;;;22.40;99.90;;;;;;4959014;28;20023;-64
2023/07/21 08:32:37;;;;;;;13.73;11.30;;;22.20;99.90;;;;;;4961541;28;20077;-63
2023/07/21 08:35:04;;;;;;;12.95;10.85;;;22.30;99.90;;;;;;4967467;28;20401;-64
2023/07/21 08:37:30;;;;;;;13.25;11.70;;;22.20;99.90;;;;;;4959266;28;20019;-63
2023/07/21 08:39:56;;;;;;;14.65;10.85;;;22.50;99.90;;;;;;4961684;28;20403;-63
2023/07/21 08:42:24;;;;;;;13.57;10.85;;;23.20;99.90;;;;;;4958641;28;20122;-63
2023/07/21 08:44:52;;;;;;;12.43;10.57;;;23.40;98.60;;;;;;4961972;28;20023;-64
2023/07/21 08:47:19;;;;;;;11.70;9.45;;;23.70;99.90;;;;;;4971513;28;20045;-63
2023/07/21 08:49:45;;;;;;;11.90;9.48;;;24.10;98.00;;;;;;4958974;28;20057;-64
2023/07/21 08:52:11;;;;;;;11.10;8.27;;;24.40;97.10;;;;;;4987571;28;20499;-63
2023/07/21 08:54:36;;;;;;;13.70;8.40;;;25.00;96.70;;;;;;4959695;28;20066;-64
2023/07/21 08:57:02;;;;;;;9.75;8.10;;;24.80;94.80;;;;;;4961331;28;20019;-64
2023/07/21 08:59:28;;;;;;;12.00;7.55;;;25.40;93.30;;;;;;4955859;28;20111;-63
2023/07/21 09:01:54;;;;;;;10.65;8.18;;;25.80;92.20;;;;;;4985044;28;20511;-63
2023/07/21 09:04:24;;;;;;;9.35;7.68;;;25.40;92.10;;;;;;4974802;28;20051;-64
2023/07/21 09:06:55;;;;;;;10.00;7.95;;;25.20;93.10;;;;;;4985412;28;20392;-64
2023/07/21 09:09:22;;;;;;;9.88;7.00;;;25.30;93.80;;;;;;4964979;28;20031;-63
2023/07/21 09:11:49;;;;;;;11.40;9.52;;;25.40;93.20;;;;;;4984767;28;20380;-65
2023/07/21 09:14:16;;;;;;;11.27;6.85;;;25.40;92.00;;;;;;4976372;28;20463;-65
2023/07/21 09:16:43;;;;;;;7.80;6.57;;;25.10;92.80;;;;;;4974606;28;20061;-64
2023/07/21 09:19:10;;;;;;;12.05;8.20;;;24.30;93.40;;;;;;4977298;28;20033;-63
2023/07/21 09:21:36;;;;;;;7.95;6.65;;;24.00;93.70;;;;;;4977960;28;20031;-64
2023/07/21 09:24:06;;;;;;;11.95;8.40;;;24.10;94.50;;;;;;4967605;28;20424;-64
2023/07/21 09:26:32;;;;;;;9.13;6.82;;;23.90;94.90;;;;;;4979699;28;20030;-64
2023/07/21 09:28:58;;;;;;;10.85;7.03;;;24.20;94.20;;;;;;4990221;28;20030;-64
2023/07/21 09:31:33;;;;;;;10.52;7.82;;;24.80;94.00;;;;;;4988701;28;20031;-65
2023/07/21 09:34:07;;;;;;;10.10;7.72;;;26.00;93.10;;;;;;4988979;28;20026;-65
2023/07/21 09:36:33;;;;;;;13.13;7.50;;;26.60;92.10;;;;;;4989768;28;20491;-65
2023/07/21 09:39:02;;;;;;;6.90;6.20;;;27.00;90.70;;;;;;4974597;28;20026;-65
2023/07/21 09:41:31;;;;;;;9.45;5.28;;;27.30;85.20;;;;;;4989007;28;20080;-65
2023/07/21 09:43:58;;;;;;;6.47;5.03;;;27.60;86.50;;;;;;4987896;28;20022;-64
2023/07/21 09:46:24;;;;;;;9.20;6.20;;;26.80;83.80;;;;;;4987603;28;20022;-64
2023/07/21 09:48:49;;;;;;;7.90;5.95;;;26.20;87.50;;;;;;4988683;28;20030;-64
2023/07/21 09:51:17;;;;;;;8.35;6.03;;;26.40;88.60;;;;;;4989531;28;20035;-67
2023/07/21 09:53:43;;;;;;;7.10;5.45;;;26.40;84.10;;;;;;4984341;28;20023;-64
2023/07/21 09:56:11;;;;;;;10.93;5.18;;;26.50;85.30;;;;;;4988911;28;20084;-65
2023/07/21 09:58:47;;;;;;;7.38;5.85;;;26.50;84.90;;;;;;4986960;28;20030;-66
2023/07/21 10:01:14;;;;;;;6.22;5.03;;;27.00;82.20;;;;;;4988217;28;20033;-64
2023/07/21 10:03:41;;;;;;;7.28;4.78;;;26.90;84.40;;;;;;4977635;28;20140;-64
2023/07/21 10:06:08;;;;;;;6.88;4.72;;;27.30;83.00;;;;;;4985688;28;20109;-65
2023/07/21 10:08:36;;;;;;;8.65;6.10;;;27.20;83.10;;;;;;4986345;28;20450;-66
2023/07/21 10:11:04;;;;;;;5.93;4.65;;;27.50;78.10;;;;;;4991222;28;20057;-65
2023/07/21 10:13:31;;;;;;;5.78;4.85;;;27.30;80.30;;;;;;4966721;28;20076;-65
2023/07/21 10:16:05;;;;;;;7.03;4.38;;;27.00;78.80;;;;;;4989089;28;20030;-64
2023/07/21 10:18:31;;;;;;;7.55;4.65;;;26.20;84.70;;;;;;4987881;28;20102;-64
2023/07/21 10:20:58;;;;;;;7.10;5.68;;;26.40;82.60;;;;;;4990019;28;20043;-64
2023/07/21 10:23:37;;;;;;;6.68;4.95;;;26.70;84.50;;;;;;4987204;28;20030;-64
2023/07/21 10:26:09;;;;;;;8.93;6.38;;;26.80;83.10;;;;;;4991516;28;20117;-64
2023/07/21 10:28:43;;;;;;;6.18;4.65;;;26.30;80.30;;;;;;4992108;28;20419;-65
2023/07/21 10:31:24;;;;;;;7.10;5.78;;;26.20;83.80;;;;;;4989421;28;20061;-64
2023/07/21 10:34:11;;;;;;;11.85;6.40;;;26.40;81.50;;;;;;4989543;28;20105;-64
2023/07/21 10:36:44;;;;;;;7.03;5.18;;;25.90;81.00;;;;;;4987276;28;20022;-64
2023/07/21 10:39:11;;;;;;;7.45;5.75;;;26.30;80.00;;;;;;4989538;28;20034;-65
2023/07/21 10:41:38;;;;;;;6.90;4.57;;;26.00;78.80;;;;;;4989240;28;20453;-66
2023/07/21 10:44:10;;;;;;;4.88;4.45;;;26.20;83.10;;;;;;4988263;28;20022;-63
2023/07/21 10:46:41;;;;;;;9.07;5.97;;;26.00;81.90;;;;;;4991986;28;20050;-64
2023/07/21 10:49:12;;;;;;;7.75;4.30;;;25.70;81.60;;;;;;4972220;28;20101;-65
2023/07/21 10:51:39;;;;;;;7.22;4.80;;;25.70;82.70;;;;;;4988109;28;20450;-65
2023/07/21 10:54:05;;;;;;;5.10;4.40;;;25.20;83.20;;;;;;4987623;28;20122;-64
2023/07/21 10:56:43;;;;;;;6.40;3.53;;;25.10;81.90;;;;;;4990354;28;20097;-66
2023/07/21 10:59:14;;;;;;;9.18;3.78;;;25.30;82.40;;;;;;4972779;28;20034;-63
2023/07/21 11:01:46;;;;;;;5.05;2.75;;;25.70;82.80;;;;;;4990063;28;20022;-64
2023/07/21 11:04:13;;;;;;;5.75;3.70;;;25.60;81.20;;;;;;4985028;28;20447;-64
2023/07/21 11:06:51;;;;;;;7.63;2.95;;;25.10;82.80;;;;;;4989407;28;20076;-65
2023/07/21 11:09:17;;;;;;;3.67;2.88;;;25.00;83.10;;;;;;4986188;28;20046;-63
2023/07/21 11:11:47;;;;;;;13.20;3.70;;;25.10;81.00;;;;;;4990470;28;20455;-64
2023/07/21 11:14:15;;;;;;;5.22;2.65;;;25.00;79.80;;;;;;4995369;28;20533;-64
2023/07/21 11:16:52;;;;;;;4.28;2.55;;;24.80;80.40;;;;;;4973872;28;20077;-64
2023/07/21 11:19:19;;;;;;;6.32;2.72;;;25.10;79.40;;;;;;4988570;28;20097;-64
2023/07/21 11:21:46;;;;;;;6.80;2.28;;;24.70;81.80;;;;;;4991122;28;20085;-65
2023/07/21 11:24:23;;;;;;;3.08;2.63;;;24.70;81.30;;;;;;4987777;28;20031;-63
2023/07/21 11:26:48;;;;;;;5.45;2.85;;;24.60;80.60;;;;;;4989011;28;20030;-65
2023/07/21 11:29:15;;;;;;;3.97;2.13;;;24.50;80.90;;;;;;4973020;28;20023;-64
2023/07/21 11:31:41;;;;;;;8.18;2.28;;;24.50;82.40;;;;;;4991098;28;20050;-63
2023/07/21 11:34:24;;;;;;;5.35;2.33;;;24.50;82.00;;;;;;4992619;28;20023;-63
2023/07/21 11:36:58;;;;;;;6.15;2.08;;;24.50;81.20;;;;;;4989517;28;20022;-65
2023/07/21 11:39:27;;;;;;;3.55;2.60;;;24.30;81.00;;;;;;4990113;28;20480;-64
2023/07/21 11:41:59;;;;;;;5.22;2.90;;;24.30;80.70;;;;;;4990019;28;20120;-64
2023/07/21 11:44:26;;;;;;;6.40;2.50;;;23.90;81.60;;;;;;4985694;28;20281;-63
2023/07/21 11:47:11;;;;;;;3.35;2.08;;;24.00;81.10;;;;;;4989088;28;20114;-66
2023/07/21 11:49:41;;;;;;;2.78;1.70;;;23.90;81.30;;;;;;4991266;28;20022;-64
2023/07/21 11:52:08;;;;;;;5.40;1.60;;;23.80;80.60;;;;;;4991372;28;20029;-63
2023/07/21 11:54:42;;;;;;;4.72;1.90;;;23.50;82.00;;;;;;4990086;28;20027;-65
2023/07/21 11:57:09;;;;;;;4.15;1.85;;;23.50;80.10;;;;;;4984581;28;20050;-64
2023/07/21 11:59:35;;;;;;;7.57;2.30;;;23.80;80.20;;;;;;4989542;28;20037;-65
2023/07/21 12:02:09;;;;;;;1.95;1.60;;;23.70;80.30;;;;;;4967624;28;20023;-64
2023/07/21 12:04:37;;;;;;;2.15;1.58;;;23.90;79.90;;;;;;4984394;28;20090;-64
2023/07/21 12:07:03;;;;;;;2.58;1.83;;;23.90;79.10;;;;;;4972205;28;20036;-64
2023/07/21 12:09:31;;;;;;;3.15;1.67;;;24.00;77.40;;;;;;4990636;28;20026;-63
2023/07/21 12:11:56;;;;;;;2.70;1.30;;;24.30;78.00;;;;;;4991147;28;20023;-65
2023/07/21 12:14:24;;;;;;;2.75;1.50;;;24.40;77.90;;;;;;4990038;28;20049;-64
2023/07/21 12:16:55;;;;;;;3.60;1.75;;;24.60;79.30;;;;;;4988987;28;20050;-57
2023/07/21 12:19:20;;;;;;;2.40;1.52;;;24.70;77.70;;;;;;4994593;28;20480;-63
2023/07/21 12:21:46;;;;;;;2.00;1.60;;;24.70;75.80;;;;;;4988932;28;20057;-64
2023/07/21 12:24:11;;;;;;;2.90;1.50;;;24.80;76.30;;;;;;4986307;28;20037;-64
2023/07/21 12:26:37;;;;;;;3.47;1.65;;;24.70;77.10;;;;;;4988312;28;20376;-65
2023/07/21 12:29:03;;;;;;;2.00;1.58;;;24.50;77.10;;;;;;4989430;28;20085;-64
2023/07/21 12:31:28;;;;;;;3.30;1.65;;;24.10;78.90;;;;;;4990148;28;20033;-65
2023/07/21 12:33:54;;;;;;;3.03;1.52;;;23.70;77.90;;;;;;4993870;28;20027;-63
2023/07/21 12:36:20;;;;;;;3.25;1.90;;;23.50;80.00;;;;;;4988115;28;20041;-64
2023/07/21 12:38:46;;;;;;;5.63;1.70;;;23.10;80.80;;;;;;4989258;28;20711;-66
2023/07/21 12:41:12;;;;;;;5.10;1.60;;;23.00;81.50;;;;;;4972186;28;20034;-66
2023/07/21 12:43:38;;;;;;;2.55;1.40;;;22.80;82.20;;;;;;4990199;28;20076;-64